Strathcarron, United Kingdom
Current Conditions -  °F | °C
As of 3:50 AM on Sunday 21 Dec 2014 (Local Time) from EGPL Reporting Station
Light Rain Light Rain  
Wind Chill: 10°   Ceiling: 600
Heat Index: 10°   Visibility: 2.8mi
Dew Point:   Wind: 25mph
Humidity: 94%   Direction: 220°SW
Pressure: 29.8"   Gusts: NA
Location:  57.41°N, 5.81°W
Report Text: EGPL 210350Z AUTO 22022KT 4500 -RA BKN006/// 10/09 Q1009 RERA
Loading
Personal Weather Stations






























Interactive Weather Map New forecast layout! Learn more

10-Day Weather Forecast

Advertisements
Track Severe Weather on mobile